KBIL/BIL METAR and TAF weather

Enter ICAO airport designator
Station Type Date Time Source
KBIL METAR 2021/07/30 05:53 UTC NOAA

KBIL 300553Z 23010KT 10SM FEW140 BKN180 23/14 A3013 RMK AO2 SLP166 HZ ALQDS T02330144 10306 20233 50002


Station Type Date Time Source
KBIL Decoded METAR 2021/07/30 05:53 UTC NOAA

LOGAN INTERNATIONAL AIRPORT, MT, United States (KBIL) 45-49N 108-33W 1091M
Jul 30, 2021 - 01:53 AM EDT / 2021.07.30 0553 UTC
Wind: from the SW (230 degrees) at 12 MPH (10 KT):0
Visibility: 10 mile(s):0
Sky conditions: mostly cloudy
Temperature: 73.9 F (23.3 C)
Dew Point: 57.9 F (14.4 C)
Relative Humidity: 57%
Pressure (altimeter): 30.13 in. Hg (1020 hPa)
Pressure tendency: 0.01 inches (0.2 hPa) higher than three hours ago
ob: KBIL 300553Z 23010KT 10SM FEW140 BKN180 23/14 A3013 RMK AO2 SLP166 HZ ALQDS T02330144 10306 20233 50002
cycle: 6

Station Type Date Time Source
KBIL TAF 2021/07/30 06:36 UTC NOAA

TAF KBIL 300535Z 3006/3106 23010KT P6SM BKN140
FM301800 05012G19KT P6SM SCT100
FM310200 06010KT P6SM SCT100

Example: see airport list